createdAt,value
2018-06-21T00:03:09.164Z,66.02
2018-06-21T00:08:03.698Z,66.76
2018-06-21T00:12:58.775Z,66.29
2018-06-21T00:17:53.324Z,67.55
2018-06-21T00:22:47.923Z,67.59
2018-06-21T00:27:42.526Z,67.75
2018-06-21T00:32:37.468Z,67.98
2018-06-21T00:37:32.117Z,68.47
2018-06-21T00:42:26.853Z,68.49
2018-06-21T00:47:21.432Z,68.59
2018-06-21T00:52:15.970Z,68.83
2018-06-21T00:57:10.476Z,69.37
2018-06-21T01:02:04.945Z,69.81
2018-06-21T01:06:59.434Z,70.44
2018-06-21T01:11:53.885Z,71.56
2018-06-21T01:16:48.430Z,71.70
2018-06-21T01:21:42.953Z,71.51
2018-06-21T01:26:37.483Z,72.19
2018-06-21T01:31:31.986Z,72.49
2018-06-21T01:36:26.589Z,71.67
2018-06-21T01:41:21.097Z,72.15
2018-06-21T01:46:15.561Z,70.97
2018-06-21T01:51:09.989Z,72.06
2018-06-21T01:56:04.532Z,72.28
2018-06-21T02:00:59.129Z,72.47
2018-06-21T02:05:53.598Z,72.40
2018-06-21T02:10:48.069Z,73.52
2018-06-21T02:15:42.545Z,73.48
2018-06-21T02:20:37.020Z,73.54
2018-06-21T02:25:31.624Z,73.47
2018-06-21T02:30:26.086Z,73.01
2018-06-21T02:35:20.545Z,73.36
2018-06-21T02:40:15.056Z,73.53
2018-06-21T02:45:09.571Z,74.74
2018-06-21T02:50:04.163Z,74.75
2018-06-21T02:54:58.646Z,73.96
2018-06-21T02:59:53.161Z,74.93
2018-06-21T03:04:47.605Z,75.19
2018-06-21T03:09:42.052Z,74.71
2018-06-21T03:14:36.508Z,75.26
2018-06-21T03:19:30.976Z,75.38
2018-06-21T03:24:25.765Z,74.39
2018-06-21T03:29:19.950Z,73.93
2018-06-21T03:34:14.418Z,74.20
2018-06-21T03:39:08.965Z,74.90
2018-06-21T03:44:03.388Z,74.99
2018-06-21T03:48:57.891Z,75.18
2018-06-21T03:53:52.468Z,73.98
2018-06-21T03:58:47.088Z,70.68
2018-06-21T04:03:41.821Z,66.20
2018-06-21T04:08:36.293Z,63.50
2018-06-21T04:13:30.812Z,59.59
2018-06-21T04:18:29.540Z,57.28
2018-06-21T04:23:24.107Z,55.99
2018-06-21T04:28:18.590Z,51.85
2018-06-21T04:33:13.163Z,48.67
2018-06-21T04:38:07.677Z,46.69
2018-06-21T04:43:02.180Z,45.59
2018-06-21T04:47:56.629Z,43.20
2018-06-21T04:52:51.097Z,42.71
2018-06-21T04:57:45.573Z,41.38
2018-06-21T05:02:40.007Z,39.59
2018-06-21T05:07:34.480Z,40.01
2018-06-21T05:12:28.998Z,39.70
2018-06-21T05:17:23.709Z,41.62
2018-06-21T05:22:18.165Z,42.75
2018-06-21T05:27:12.730Z,40.71
2018-06-21T05:32:07.261Z,40.16
2018-06-21T05:37:01.731Z,38.59
2018-06-21T05:41:56.534Z,38.48
2018-06-21T05:46:50.952Z,38.16
2018-06-21T05:51:45.660Z,38.29
2018-06-21T05:56:40.156Z,38.91
2018-06-21T06:01:35.771Z,38.16
2018-06-21T06:06:31.074Z,37.41
2018-06-21T06:11:26.583Z,37.12
2018-06-21T06:16:21.211Z,38.23
2018-06-21T06:21:16.002Z,37.97
2018-06-21T06:26:11.576Z,43.29
2018-06-21T06:31:07.078Z,44.84
2018-06-21T06:36:01.855Z,48.42
2018-06-21T06:40:57.192Z,49.57
2018-06-21T06:55:03.436Z,48.17
2018-06-21T06:59:58.199Z,47.35
2018-06-21T07:04:53.366Z,46.82
2018-06-21T07:09:47.857Z,47.40
2018-06-21T07:14:42.864Z,46.81
2018-06-21T07:19:38.481Z,46.55
2018-06-21T07:24:33.248Z,49.20
2018-06-21T07:29:27.708Z,48.89
2018-06-21T07:34:22.558Z,47.14
2018-06-21T07:39:17.132Z,46.30
2018-06-21T07:44:12.253Z,46.17
2018-06-21T07:49:06.884Z,45.65
2018-06-21T07:54:01.430Z,46.14
2018-06-21T07:58:55.995Z,47.67
2018-06-21T08:03:57.312Z,45.58
2018-06-21T08:08:55.249Z,45.67
2018-06-21T08:13:50.019Z,45.85
2018-06-21T08:18:55.026Z,45.08
2018-06-21T08:23:50.057Z,44.15
2018-06-21T08:28:44.747Z,45.21
2018-06-21T08:33:39.693Z,43.49
2018-06-21T08:38:35.090Z,42.88
2018-06-21T08:43:29.575Z,44.43
2018-06-21T08:48:24.042Z,43.69
2018-06-21T08:53:18.581Z,43.54
2018-06-21T08:58:25.421Z,44.11
2018-06-21T09:03:22.225Z,44.03
2018-06-21T09:08:17.437Z,43.76
2018-06-21T09:13:11.975Z,43.88
2018-06-21T09:18:15.604Z,43.31
2018-06-21T09:23:10.500Z,43.56
2018-06-21T09:28:05.320Z,43.28
2018-06-21T09:32:59.888Z,42.83
2018-06-21T09:37:59.712Z,43.92
2018-06-21T09:42:59.652Z,41.76
2018-06-21T09:47:59.529Z,42.22
2018-06-21T09:52:54.037Z,41.62
2018-06-21T09:57:48.491Z,42.63
2018-06-21T10:02:45.777Z,41.71
2018-06-21T10:07:51.459Z,40.55
2018-06-21T10:12:48.496Z,41.70
2018-06-21T10:17:43.337Z,40.45
2018-06-21T10:22:37.815Z,39.89
2018-06-21T10:27:32.246Z,38.51
2018-06-21T10:32:26.730Z,38.10
2018-06-21T10:37:21.135Z,37.00
2018-06-21T10:42:21.625Z,37.79
2018-06-21T10:47:16.508Z,37.72
2018-06-21T10:52:11.050Z,37.42
2018-06-21T10:57:06.897Z,37.47
2018-06-21T11:02:01.471Z,37.53
2018-06-21T11:06:55.623Z,36.25
2018-06-21T11:11:50.917Z,35.72
2018-06-21T11:16:46.520Z,36.27
2018-06-21T11:21:41.056Z,36.96
2018-06-21T11:26:35.659Z,35.97
2018-06-21T11:31:30.512Z,33.68
2018-06-21T11:36:25.238Z,33.69
2018-06-21T11:41:19.636Z,32.32
2018-06-21T11:46:14.088Z,32.71
2018-06-21T11:51:08.525Z,32.93
2018-06-21T11:56:03.352Z,31.77
2018-06-21T12:00:58.663Z,32.42
2018-06-21T12:05:53.695Z,32.38
2018-06-21T12:10:49.718Z,31.70
2018-06-21T12:15:45.447Z,31.04
2018-06-21T12:20:40.006Z,28.20
2018-06-21T12:25:34.832Z,29.31
2018-06-21T12:30:29.756Z,28.79
2018-06-21T12:35:25.090Z,27.93
2018-06-21T12:40:20.634Z,29.65
2018-06-21T12:45:15.053Z,30.54
2018-06-21T12:50:09.482Z,28.56
2018-06-21T12:55:04.365Z,28.89
2018-06-21T12:59:59.668Z,29.91
2018-06-21T13:04:54.555Z,33.19
2018-06-21T13:10:06.360Z,33.95
2018-06-21T13:15:02.265Z,35.02
2018-06-21T13:19:57.767Z,36.58
2018-06-21T13:24:53.357Z,36.05
2018-06-21T13:29:49.081Z,36.58
2018-06-21T13:34:44.574Z,35.17
2018-06-21T13:39:46.723Z,34.58
2018-06-21T13:44:42.434Z,33.73
2018-06-21T13:49:46.018Z,34.54
2018-06-21T13:54:41.190Z,34.53
2018-06-21T13:59:35.666Z,35.00
2018-06-21T14:04:30.130Z,36.10
2018-06-21T14:09:27.553Z,37.14
2018-06-21T14:14:22.005Z,35.33
2018-06-21T14:19:16.540Z,35.44
2018-06-21T14:24:12.855Z,35.55
2018-06-21T14:29:08.020Z,36.28
2018-06-21T14:34:02.477Z,36.19
2018-06-21T14:38:57.133Z,36.54
2018-06-21T14:43:51.588Z,37.39
2018-06-21T14:48:46.099Z,35.73
2018-06-21T14:53:46.256Z,35.80
2018-06-21T14:58:41.548Z,35.96
2018-06-21T15:03:36.023Z,36.90
2018-06-21T15:08:30.486Z,36.67
2018-06-21T15:13:24.921Z,36.71
2018-06-21T15:18:19.800Z,35.51
2018-06-21T15:23:14.311Z,35.88
2018-06-21T15:28:08.688Z,35.39
2018-06-21T15:33:03.168Z,35.39
2018-06-21T15:37:57.721Z,35.73
2018-06-21T15:42:52.223Z,35.94
2018-06-21T15:47:46.802Z,36.20
2018-06-21T15:52:41.038Z,35.93
2018-06-21T15:57:36.318Z,35.26
2018-06-21T16:02:31.241Z,35.01
2018-06-21T16:07:26.004Z,34.89
2018-06-21T16:12:20.608Z,35.42
2018-06-21T16:17:23.127Z,34.31
2018-06-21T16:22:17.704Z,34.95
2018-06-21T16:27:12.298Z,35.38
2018-06-21T16:32:06.992Z,35.40
2018-06-21T16:37:01.656Z,35.94
2018-06-21T16:41:56.224Z,36.10
2018-06-21T16:46:50.764Z,36.84
2018-06-21T16:51:45.260Z,36.81
2018-06-21T16:56:39.903Z,36.30
2018-06-21T17:01:35.423Z,36.19
2018-06-21T17:11:36.481Z,38.45
2018-06-21T17:16:31.057Z,40.57
2018-06-21T17:21:25.600Z,40.46
2018-06-21T17:26:20.218Z,41.84
2018-06-21T17:31:14.773Z,41.81
2018-06-21T17:36:09.386Z,42.83
2018-06-21T17:41:04.047Z,43.44
2018-06-21T17:45:58.724Z,44.45
2018-06-21T17:50:53.262Z,44.21
2018-06-21T17:55:47.962Z,44.91
2018-06-21T18:00:42.747Z,45.00
2018-06-21T18:05:37.500Z,44.79
2018-06-21T18:10:32.115Z,46.22
2018-06-21T18:15:26.813Z,44.92
2018-06-21T18:20:21.422Z,45.43
2018-06-21T18:25:16.757Z,46.63
2018-06-21T18:30:11.567Z,46.91
2018-06-21T18:35:06.156Z,47.45
2018-06-21T18:40:00.877Z,47.56
2018-06-21T18:44:55.561Z,47.25
2018-06-21T18:49:50.334Z,47.40
2018-06-21T18:54:44.905Z,47.86
2018-06-21T18:59:39.476Z,48.46
2018-06-21T19:04:34.063Z,48.21
2018-06-21T19:09:33.760Z,48.37
2018-06-21T19:14:34.949Z,48.96
2018-06-21T19:19:29.611Z,48.60
2018-06-21T19:24:24.066Z,48.99
2018-06-21T19:29:18.663Z,49.74
2018-06-21T19:34:13.249Z,49.29
2018-06-21T19:39:10.560Z,48.74
2018-06-21T19:44:06.009Z,49.38
2018-06-21T19:49:00.707Z,49.24
2018-06-21T19:53:55.913Z,49.90
2018-06-21T19:58:50.809Z,49.80
2018-06-21T20:03:45.717Z,49.74
2018-06-21T20:08:40.240Z,49.13
2018-06-21T20:13:45.347Z,47.76
2018-06-21T20:18:39.994Z,48.66
2018-06-21T20:23:34.597Z,48.06
2018-06-21T20:28:29.292Z,48.34
2018-06-21T20:33:23.964Z,48.00
2018-06-21T20:38:22.372Z,47.67
2018-06-21T20:43:16.926Z,47.88
2018-06-21T20:48:11.441Z,47.17
2018-06-21T20:53:06.033Z,46.58
2018-06-21T20:58:00.680Z,46.45
2018-06-21T21:02:55.252Z,46.26
2018-06-21T21:07:53.135Z,46.60
2018-06-21T21:12:47.769Z,46.54
2018-06-21T21:17:42.673Z,47.43
2018-06-21T21:22:38.496Z,46.89
2018-06-21T21:27:33.086Z,47.02
2018-06-21T21:32:27.952Z,45.48
2018-06-21T21:37:22.933Z,44.82
2018-06-21T21:42:17.968Z,45.66
2018-06-21T21:47:12.514Z,43.85
2018-06-21T21:52:07.171Z,42.62
2018-06-21T21:57:01.876Z,41.73
2018-06-21T22:01:56.573Z,41.43
2018-06-21T22:06:51.096Z,40.35
2018-06-21T22:11:45.645Z,40.46
2018-06-21T22:16:40.227Z,40.64
2018-06-21T22:21:34.784Z,40.50
2018-06-21T22:26:29.228Z,40.65
2018-06-21T22:31:23.745Z,40.14
2018-06-21T22:36:18.293Z,40.22
2018-06-21T22:41:12.841Z,40.81
2018-06-21T22:46:08.170Z,39.83
2018-06-21T22:51:02.639Z,39.68
2018-06-21T22:55:57.128Z,39.68
2018-06-21T23:00:51.617Z,38.88
2018-06-21T23:05:46.159Z,38.94
2018-06-21T23:10:40.737Z,39.14
2018-06-21T23:15:35.067Z,39.04
2018-06-21T23:20:29.540Z,39.01
2018-06-21T23:25:24.117Z,38.41
2018-06-21T23:30:18.578Z,39.24
2018-06-21T23:35:13.153Z,39.13
2018-06-21T23:40:07.674Z,39.81
2018-06-21T23:45:02.147Z,39.84
2018-06-21T23:49:56.689Z,39.59
2018-06-21T23:54:51.206Z,40.10
2018-06-21T23:59:45.737Z,40.18
